Terminal Aerodrome Forecast
Issued by NWS

Home | Current Version | Previous Version | Text Only | Print | Product List | Glossary On
Versions: 1 2 3 4 5 6 7 8 9 10 11 12 13 14 15
000
FTUS45 KRIW 260500
TAFBPI
TAF
KBPI 260520Z 2606/2706 35008KT P6SM FEW110 SCT200
     FM261900 33014G24KT P6SM FEW070 SCT200
     FM270200 35008KT P6SM SCT250=

USA.gov is the U.S. government's official web portal to all federal, state and local government web resources and services.